Time;durP1;ratioP1;P1;durP2;ratioP2;P2;SDS_P1;SDS_P2;PMS_P1;PMS_P2;Temp;Humidity;BMP_temperature;BMP_pressure;BME280_temperature;BME280_humidity;BME280_pressure;Samples;Min_cycle;Max_cycle;Signal;HPM_P1;HPM_P2
2022/05/21 00:00:46;;;;;;;13.52;9.77;;;;;;;;;;5092908;28;20487;-64
2022/05/21 00:03:12;;;;;;;12.68;8.95;;;;;;;;;;5096487;28;20031;-63
2022/05/21 00:05:39;;;;;;;11.70;9.38;;;;;;;;;;5099954;28;20024;-64
2022/05/21 00:08:08;;;;;;;14.75;10.48;;;;;;;;;;5090233;28;20019;-63
2022/05/21 00:10:34;;;;;;;12.93;10.13;;;;;;;;;;5092967;28;20016;-63
2022/05/21 00:13:01;;;;;;;14.13;10.38;;;;;;;;;;5083419;28;20596;-64
2022/05/21 00:15:28;;;;;;;16.40;10.65;;;;;;;;;;5075969;28;20085;-63
2022/05/21 00:17:55;;;;;;;15.38;10.52;;;;;;;;;;5093624;28;20091;-63
2022/05/21 00:23:25;;;;;;;11.73;9.98;;;;;;;;;;5091985;28;20089;-63
2022/05/21 00:25:56;;;;;;;14.93;10.85;;;;;;;;;;5081080;28;20043;-64
2022/05/21 00:28:22;;;;;;;15.80;10.85;;;;;;;;;;5093922;28;20123;-64
2022/05/21 00:30:49;;;;;;;16.02;10.30;;;;;;;;;;5089903;28;20022;-63
2022/05/21 00:33:15;;;;;;;14.70;10.57;;;;;;;;;;5090154;28;20115;-64
2022/05/21 00:35:41;;;;;;;16.20;10.98;;;;;;;;;;5096501;28;20066;-63
2022/05/21 00:38:07;;;;;;;12.77;9.85;;;;;;;;;;5098779;28;20490;-63
2022/05/21 00:40:34;;;;;;;16.88;11.40;;;;;;;;;;5095720;28;20027;-63
2022/05/21 00:43:00;;;;;;;16.80;11.48;;;;;;;;;;5091730;28;20035;-63
2022/05/21 00:45:26;;;;;;;12.63;10.13;;;;;;;;;;5083095;28;20024;-63
2022/05/21 00:47:52;;;;;;;18.48;10.80;;;;;;;;;;5077210;28;20518;-64
2022/05/21 00:50:20;;;;;;;11.88;9.55;;;;;;;;;;5079773;28;20081;-63
2022/05/21 00:52:46;;;;;;;11.38;10.18;;;;;;;;;;5076158;28;20103;-63
2022/05/21 00:55:14;;;;;;;12.65;9.50;;;;;;;;;;5097697;28;20039;-63
2022/05/21 00:57:43;;;;;;;12.70;9.35;;;;;;;;;;5096790;28;20055;-63
2022/05/21 01:00:15;;;;;;;11.63;9.05;;;;;;;;;;5100300;28;20020;-63
2022/05/21 01:02:44;;;;;;;11.52;8.48;;;;;;;;;;5094494;28;20050;-63
2022/05/21 01:05:12;;;;;;;10.07;7.65;;;;;;;;;;5086191;28;20024;-63
2022/05/21 01:07:39;;;;;;;11.27;7.85;;;;;;;;;;5091329;28;20590;-63
2022/05/21 01:10:06;;;;;;;14.27;7.72;;;;;;;;;;5097460;28;20459;-63
2022/05/21 01:12:33;;;;;;;12.60;7.88;;;;;;;;;;5102440;28;20093;-63
2022/05/21 01:15:01;;;;;;;8.48;6.50;;;;;;;;;;5086315;28;20028;-63
2022/05/21 01:17:27;;;;;;;11.20;7.35;;;;;;;;;;5095148;28;20076;-63
2022/05/21 01:20:00;;;;;;;14.18;7.07;;;;;;;;;;5086719;28;20032;-63
2022/05/21 01:22:30;;;;;;;8.05;6.32;;;;;;;;;;5088323;28;20072;-63
2022/05/21 01:24:56;;;;;;;9.13;6.43;;;;;;;;;;5089764;28;20515;-63
2022/05/21 01:27:22;;;;;;;10.88;6.50;;;;;;;;;;5099148;28;20507;-63
2022/05/21 01:29:50;;;;;;;9.55;6.10;;;;;;;;;;5091375;28;20034;-63
2022/05/21 01:32:17;;;;;;;10.10;6.00;;;;;;;;;;5099306;28;20125;-63
2022/05/21 01:34:43;;;;;;;6.32;5.25;;;;;;;;;;5096688;28;20168;-63
2022/05/21 01:37:09;;;;;;;12.68;5.72;;;;;;;;;;5092975;28;20471;-63
2022/05/21 01:39:35;;;;;;;7.95;5.20;;;;;;;;;;5086353;28;20032;-63
2022/05/21 01:42:01;;;;;;;9.05;4.93;;;;;;;;;;5091074;28;20020;-63
2022/05/21 01:44:39;;;;;;;12.60;5.05;;;;;;;;;;5091194;28;20020;-63
2022/05/21 01:47:09;;;;;;;10.27;5.70;;;;;;;;;;5094602;28;20158;-63
2022/05/21 01:49:36;;;;;;;9.30;4.60;;;;;;;;;;5092807;28;20368;-63
2022/05/21 01:52:02;;;;;;;7.63;4.85;;;;;;;;;;5085228;28;20035;-63
2022/05/21 01:54:28;;;;;;;10.82;4.80;;;;;;;;;;5098207;28;20024;-63
2022/05/21 01:56:54;;;;;;;8.20;4.47;;;;;;;;;;5084231;28;20036;-63
2022/05/21 01:59:20;;;;;;;9.20;4.40;;;;;;;;;;5091963;28;20034;-63
2022/05/21 02:01:48;;;;;;;8.50;4.20;;;;;;;;;;5090011;28;20031;-63
2022/05/21 02:04:14;;;;;;;7.90;3.92;;;;;;;;;;5096237;28;20065;-63
2022/05/21 02:06:40;;;;;;;8.27;4.10;;;;;;;;;;5098096;28;20203;-63
2022/05/21 02:09:06;;;;;;;8.52;3.92;;;;;;;;;;5088474;28;20028;-63
2022/05/21 02:11:32;;;;;;;7.70;3.65;;;;;;;;;;5085244;28;20109;-63
2022/05/21 02:13:58;;;;;;;6.15;3.72;;;;;;;;;;5086212;28;20070;-63
2022/05/21 02:16:24;;;;;;;8.68;3.65;;;;;;;;;;5092065;28;20564;-63
2022/05/21 02:18:50;;;;;;;8.35;3.38;;;;;;;;;;5092974;28;20028;-63
2022/05/21 02:21:17;;;;;;;8.00;3.60;;;;;;;;;;5090102;28;20398;-63
2022/05/21 02:23:43;;;;;;;10.18;3.75;;;;;;;;;;5102360;28;20019;-63
2022/05/21 02:26:09;;;;;;;8.77;3.28;;;;;;;;;;5082373;28;20020;-63
2022/05/21 02:28:35;;;;;;;8.65;3.42;;;;;;;;;;5095401;28;20030;-63
2022/05/21 02:31:02;;;;;;;8.07;3.33;;;;;;;;;;5085131;28;20562;-63
2022/05/21 02:33:28;;;;;;;6.97;3.40;;;;;;;;;;5101797;28;20390;-63
2022/05/21 02:35:54;;;;;;;6.80;3.17;;;;;;;;;;5087805;28;20024;-63
2022/05/21 02:41:09;;;;;;;10.32;3.30;;;;;;;;;;5089558;28;20035;-63
2022/05/21 02:43:35;;;;;;;6.55;3.47;;;;;;;;;;5090443;28;20067;-63
2022/05/21 02:46:02;;;;;;;7.75;3.33;;;;;;;;;;5087446;28;20110;-63
2022/05/21 02:48:29;;;;;;;11.57;3.30;;;;;;;;;;5091954;28;20111;-63
2022/05/21 02:50:55;;;;;;;10.77;2.97;;;;;;;;;;5081695;28;20039;-63
2022/05/21 02:53:22;;;;;;;9.77;3.30;;;;;;;;;;5099672;28;20437;-63
2022/05/21 02:55:49;;;;;;;6.88;3.15;;;;;;;;;;5091765;28;20031;-63
2022/05/21 02:58:15;;;;;;;7.93;3.42;;;;;;;;;;5084423;28;20036;-63
2022/05/21 03:00:41;;;;;;;8.40;3.78;;;;;;;;;;5090295;28;20028;-63
2022/05/21 03:03:07;;;;;;;8.80;3.72;;;;;;;;;;5078186;28;20483;-63
2022/05/21 03:05:33;;;;;;;6.45;3.05;;;;;;;;;;5091045;28;20030;-63
2022/05/21 03:10:20;;;;;;;7.90;3.63;;;;;;;;;;5098293;28;20359;-63
2022/05/21 03:10:51;;;;;;;10.93;4.03;;;;;;;;;;5086451;28;20120;-63
2022/05/21 03:13:17;;;;;;;11.13;4.35;;;;;;;;;;5099385;28;20108;-63
2022/05/21 03:15:43;;;;;;;14.32;5.30;;;;;;;;;;5095859;28;20063;-63
2022/05/21 03:18:10;;;;;;;10.35;4.40;;;;;;;;;;5091203;28;20024;-63
2022/05/21 03:20:37;;;;;;;12.45;4.60;;;;;;;;;;5095279;28;20754;-63
2022/05/21 03:23:03;;;;;;;14.68;5.40;;;;;;;;;;5094315;28;20035;-63
2022/05/21 03:25:29;;;;;;;10.25;4.90;;;;;;;;;;5097659;28;20034;-63
2022/05/21 03:27:56;;;;;;;13.90;5.32;;;;;;;;;;5088864;28;20092;-63
2022/05/21 03:30:23;;;;;;;12.18;5.53;;;;;;;;;;5093225;28;20043;-63
2022/05/21 03:32:50;;;;;;;15.93;5.18;;;;;;;;;;5092669;28;20026;-63
2022/05/21 03:35:19;;;;;;;11.55;5.07;;;;;;;;;;5100457;28;20463;-63
2022/05/21 03:37:45;;;;;;;20.85;5.35;;;;;;;;;;5085192;28;20051;-63
2022/05/21 03:40:12;;;;;;;10.32;4.80;;;;;;;;;;5096825;28;20095;-63
2022/05/21 03:42:38;;;;;;;13.30;5.45;;;;;;;;;;5100751;28;20107;-63
2022/05/21 03:45:05;;;;;;;12.30;5.60;;;;;;;;;;5089419;28;20494;-63
2022/05/21 03:47:31;;;;;;;12.35;5.82;;;;;;;;;;5092757;28;20239;-63
2022/05/21 03:49:57;;;;;;;11.73;5.25;;;;;;;;;;5084148;28;20032;-63
2022/05/21 03:52:23;;;;;;;13.10;5.88;;;;;;;;;;5080064;28;20442;-64
2022/05/21 03:54:49;;;;;;;15.25;6.40;;;;;;;;;;5086814;28;20108;-63
2022/05/21 03:57:16;;;;;;;12.70;6.03;;;;;;;;;;5095333;28;20031;-63
2022/05/21 03:59:43;;;;;;;13.15;6.13;;;;;;;;;;5085343;28;20032;-63
2022/05/21 04:02:09;;;;;;;17.70;6.50;;;;;;;;;;5095772;28;20538;-63
2022/05/21 04:04:36;;;;;;;10.68;6.10;;;;;;;;;;5098203;28;20035;-64
2022/05/21 04:07:02;;;;;;;17.85;6.28;;;;;;;;;;5097049;28;20039;-63
2022/05/21 04:09:28;;;;;;;12.90;6.45;;;;;;;;;;5084555;28;20453;-63
2022/05/21 04:11:58;;;;;;;18.35;7.00;;;;;;;;;;5093042;28;20023;-63
2022/05/21 04:14:30;;;;;;;16.20;6.85;;;;;;;;;;5079157;28;20111;-63
2022/05/21 04:16:57;;;;;;;16.17;7.47;;;;;;;;;;5099791;28;20027;-63
2022/05/21 04:19:23;;;;;;;12.63;6.28;;;;;;;;;;5087534;28;20357;-63
2022/05/21 04:21:50;;;;;;;11.88;5.75;;;;;;;;;;5081661;28;20615;-64
2022/05/21 04:24:16;;;;;;;15.15;6.43;;;;;;;;;;5094308;28;20058;-63
2022/05/21 04:26:42;;;;;;;14.80;6.13;;;;;;;;;;5091803;28;20036;-63
2022/05/21 04:29:09;;;;;;;14.23;6.20;;;;;;;;;;5094355;28;20024;-64
2022/05/21 04:31:35;;;;;;;15.38;5.88;;;;;;;;;;5092621;28;20093;-63
2022/05/21 04:34:01;;;;;;;11.70;5.88;;;;;;;;;;5088734;28;20036;-64
2022/05/21 04:36:28;;;;;;;13.25;5.78;;;;;;;;;;5095649;28;20036;-63
2022/05/21 04:38:54;;;;;;;16.48;5.90;;;;;;;;;;5095841;28;20023;-64
2022/05/21 04:41:20;;;;;;;12.25;6.32;;;;;;;;;;5103170;28;20023;-63
2022/05/21 04:43:46;;;;;;;14.05;6.15;;;;;;;;;;5089171;28;20020;-63
2022/05/21 04:46:12;;;;;;;15.50;6.53;;;;;;;;;;5088755;28;20021;-63
2022/05/21 04:48:41;;;;;;;16.60;6.32;;;;;;;;;;5090676;28;20030;-64
2022/05/21 04:51:07;;;;;;;11.48;6.47;;;;;;;;;;5085725;28;20032;-63
2022/05/21 04:53:33;;;;;;;12.27;6.50;;;;;;;;;;5082305;28;20024;-63
2022/05/21 04:55:59;;;;;;;12.25;5.95;;;;;;;;;;5082919;28;20425;-64
2022/05/21 04:58:25;;;;;;;18.38;7.20;;;;;;;;;;5091410;28;20026;-64
2022/05/21 05:00:51;;;;;;;14.70;7.07;;;;;;;;;;5090709;28;20024;-63
2022/05/21 05:03:18;;;;;;;14.75;6.70;;;;;;;;;;5096569;28;20028;-63
2022/05/21 05:05:44;;;;;;;15.80;6.80;;;;;;;;;;5096191;28;20024;-63
2022/05/21 05:08:11;;;;;;;14.93;6.93;;;;;;;;;;5091881;28;20023;-64
2022/05/21 05:10:37;;;;;;;16.77;7.05;;;;;;;;;;5090802;28;20499;-64
2022/05/21 05:13:04;;;;;;;18.70;8.05;;;;;;;;;;5074914;28;20033;-64
2022/05/21 05:15:30;;;;;;;14.05;7.38;;;;;;;;;;5099001;28;20028;-64
2022/05/21 05:18:02;;;;;;;18.13;7.75;;;;;;;;;;5099050;28;20034;-64
2022/05/21 05:20:28;;;;;;;15.52;8.07;;;;;;;;;;5090256;28;20045;-64
2022/05/21 05:22:55;;;;;;;16.52;7.68;;;;;;;;;;5083709;28;20109;-63
2022/05/21 05:25:21;;;;;;;19.05;8.07;;;;;;;;;;5099838;28;20483;-64
2022/05/21 05:27:47;;;;;;;18.70;9.02;;;;;;;;;;5079602;28;20119;-64
2022/05/21 05:30:14;;;;;;;14.20;8.07;;;;;;;;;;5091883;28;20449;-64
2022/05/21 05:32:40;;;;;;;19.40;8.77;;;;;;;;;;5092951;28;20032;-64
2022/05/21 05:35:06;;;;;;;15.65;8.25;;;;;;;;;;5095114;28;20066;-64
2022/05/21 05:37:33;;;;;;;18.17;7.75;;;;;;;;;;5081654;28;20066;-64
2022/05/21 05:39:58;;;;;;;15.02;8.02;;;;;;;;;;5090545;28;20479;-64
2022/05/21 05:42:24;;;;;;;17.27;8.02;;;;;;;;;;5085373;28;20112;-64
2022/05/21 05:44:50;;;;;;;19.73;7.90;;;;;;;;;;5092006;28;20420;-64
2022/05/21 05:47:16;;;;;;;15.48;8.27;;;;;;;;;;5089449;28;20016;-64
2022/05/21 05:49:42;;;;;;;17.25;7.78;;;;;;;;;;5096744;28;20140;-64
2022/05/21 05:52:09;;;;;;;18.10;7.93;;;;;;;;;;5085796;28;20027;-63
2022/05/21 05:54:35;;;;;;;17.45;7.35;;;;;;;;;;5083278;28;20074;-63
2022/05/21 05:57:01;;;;;;;15.63;7.28;;;;;;;;;;5086890;28;20035;-63
2022/05/21 06:04:57;;;;;;;18.77;8.25;;;;;;;;;;5089402;28;20092;-64
2022/05/21 06:07:23;;;;;;;12.68;7.85;;;;;;;;;;5095565;28;20031;-64
2022/05/21 06:09:49;;;;;;;14.82;7.05;;;;;;;;;;5088699;28;20036;-64
2022/05/21 06:12:15;;;;;;;19.23;7.95;;;;;;;;;;5091397;28;20028;-64
2022/05/21 06:14:41;;;;;;;18.50;8.80;;;;;;;;;;5088101;28;20059;-63
2022/05/21 06:17:07;;;;;;;18.33;7.82;;;;;;;;;;5098080;28;20150;-64
2022/05/21 06:19:33;;;;;;;16.20;8.20;;;;;;;;;;5084536;28;20052;-64
2022/05/21 06:22:00;;;;;;;21.02;8.65;;;;;;;;;;5096407;28;20024;-64
2022/05/21 06:24:26;;;;;;;17.25;9.13;;;;;;;;;;5092507;28;20245;-64
2022/05/21 06:26:52;;;;;;;18.35;8.57;;;;;;;;;;5063078;28;1037431;-63
2022/05/21 06:29:18;;;;;;;18.13;9.27;;;;;;;;;;5085785;28;20046;-64
2022/05/21 06:31:44;;;;;;;17.73;8.27;;;;;;;;;;5100935;28;20112;-64
2022/05/21 06:34:10;;;;;;;20.42;8.82;;;;;;;;;;5082743;28;20039;-64
2022/05/21 06:36:36;;;;;;;19.00;8.55;;;;;;;;;;5079137;28;20032;-64
2022/05/21 06:39:03;;;;;;;22.20;8.60;;;;;;;;;;5087613;28;20121;-64
2022/05/21 06:41:31;;;;;;;19.35;8.98;;;;;;;;;;5084154;28;20028;-64
2022/05/21 06:43:57;;;;;;;15.75;8.38;;;;;;;;;;5090973;28;20085;-64
2022/05/21 06:46:23;;;;;;;20.63;9.63;;;;;;;;;;5084092;28;20032;-64
2022/05/21 06:48:49;;;;;;;19.15;9.30;;;;;;;;;;5091214;28;20467;-64
2022/05/21 06:51:15;;;;;;;24.52;9.40;;;;;;;;;;5083290;28;20060;-64
2022/05/21 06:53:41;;;;;;;17.90;9.00;;;;;;;;;;5090097;28;20028;-64
2022/05/21 06:56:12;;;;;;;23.17;9.15;;;;;;;;;;5091569;28;20635;-64
2022/05/21 06:58:38;;;;;;;17.55;9.70;;;;;;;;;;5083659;28;20483;-64
2022/05/21 07:01:04;;;;;;;19.05;9.63;;;;;;;;;;5087442;28;20029;-64
2022/05/21 07:03:30;;;;;;;23.40;9.15;;;;;;;;;;5088198;28;20028;-64
2022/05/21 07:08:41;;;;;;;26.23;11.07;;;;;;;;;;5089701;28;20043;-63
2022/05/21 07:11:07;;;;;;;18.15;9.38;;;;;;;;;;5084053;28;20040;-63
2022/05/21 07:13:33;;;;;;;25.88;10.85;;;;;;;;;;5081492;28;20387;-64
2022/05/21 07:16:00;;;;;;;20.95;10.38;;;;;;;;;;5095945;28;20088;-64
2022/05/21 07:18:29;;;;;;;19.73;10.07;;;;;;;;;;5091321;28;20025;-64
2022/05/21 07:20:55;;;;;;;21.90;9.70;;;;;;;;;;5090869;28;20023;-64
2022/05/21 07:23:22;;;;;;;20.55;10.68;;;;;;;;;;5082416;28;20047;-64
2022/05/21 07:25:48;;;;;;;23.48;10.77;;;;;;;;;;5089248;28;20024;-64
2022/05/21 07:28:15;;;;;;;22.98;9.98;;;;;;;;;;5089776;28;20539;-64
2022/05/21 07:30:42;;;;;;;22.30;9.77;;;;;;;;;;5095759;28;20050;-64
2022/05/21 07:33:09;;;;;;;22.13;10.75;;;;;;;;;;5085714;28;20026;-64
2022/05/21 07:35:37;;;;;;;22.45;10.40;;;;;;;;;;5082196;28;20070;-64
2022/05/21 07:38:03;;;;;;;20.90;10.75;;;;;;;;;;5079317;28;20434;-63
2022/05/21 07:40:29;;;;;;;23.80;11.00;;;;;;;;;;5087359;28;20401;-63
2022/05/21 07:42:55;;;;;;;21.35;10.88;;;;;;;;;;5084155;28;20094;-64
2022/05/21 07:45:22;;;;;;;27.52;11.18;;;;;;;;;;5078437;28;20016;-63
2022/05/21 07:47:51;;;;;;;18.10;10.85;;;;;;;;;;5085784;28;20433;-63
2022/05/21 07:50:18;;;;;;;23.02;11.23;;;;;;;;;;5078689;28;20080;-64
2022/05/21 07:52:44;;;;;;;21.85;11.10;;;;;;;;;;5077109;28;20028;-63
2022/05/21 07:55:11;;;;;;;23.45;11.38;;;;;;;;;;5081710;28;20038;-64
2022/05/21 07:57:37;;;;;;;22.77;10.73;;;;;;;;;;5079435;28;20364;-64
2022/05/21 08:00:07;;;;;;;24.00;11.68;;;;;;;;;;5079780;28;20027;-63
2022/05/21 08:02:33;;;;;;;21.77;11.57;;;;;;;;;;5087404;28;20130;-62
2022/05/21 08:05:00;;;;;;;24.58;11.32;;;;;;;;;;5096018;28;20023;-62
2022/05/21 08:07:26;;;;;;;23.25;11.23;;;;;;;;;;5080295;28;20039;-63
2022/05/21 08:09:52;;;;;;;25.40;11.93;;;;;;;;;;5093068;28;20479;-63
2022/05/21 08:12:18;;;;;;;22.25;11.38;;;;;;;;;;5085908;28;20036;-63
2022/05/21 08:14:44;;;;;;;21.52;11.82;;;;;;;;;;5086764;28;20169;-62
2022/05/21 08:17:11;;;;;;;24.55;11.32;;;;;;;;;;5096564;28;20475;-63
2022/05/21 08:19:37;;;;;;;22.65;11.20;;;;;;;;;;5094389;28;20446;-63
2022/05/21 08:27:32;;;;;;;27.60;11.82;;;;;;;;;;5094691;28;20054;-62
2022/05/21 08:29:58;;;;;;;24.85;10.90;;;;;;;;;;5094250;28;20110;-63
2022/05/21 08:32:24;;;;;;;22.20;11.32;;;;;;;;;;5089440;28;20116;-63
2022/05/21 08:34:52;;;;;;;23.13;11.80;;;;;;;;;;5088702;28;20080;-63
2022/05/21 08:37:19;;;;;;;25.38;11.13;;;;;;;;;;5075157;28;20540;-63
2022/05/21 08:39:45;;;;;;;21.70;10.73;;;;;;;;;;5089162;28;20370;-63
2022/05/21 08:42:14;;;;;;;19.73;10.48;;;;;;;;;;5085470;28;20023;-64
2022/05/21 08:44:46;;;;;;;24.13;10.60;;;;;;;;;;5076654;28;20028;-63
2022/05/21 08:47:12;;;;;;;23.75;10.85;;;;;;;;;;5082360;28;20028;-63
2022/05/21 08:49:53;;;;;;;29.10;10.18;;;;;;;;;;5086155;28;20040;-63
2022/05/21 08:52:25;;;;;;;21.50;10.05;;;;;;;;;;5076925;28;20033;-63
2022/05/21 08:54:53;;;;;;;22.50;9.53;;;;;;;;;;5091011;28;20028;-63
2022/05/21 08:57:45;;;;;;;22.45;10.02;;;;;;;;;;5091555;28;20699;-63
2022/05/21 09:00:13;;;;;;;20.45;10.45;;;;;;;;;;5071674;28;20037;-63
2022/05/21 09:02:39;;;;;;;25.02;10.85;;;;;;;;;;5086210;28;20644;-63
2022/05/21 09:05:07;;;;;;;23.98;10.77;;;;;;;;;;5091629;28;20107;-63
2022/05/21 09:07:45;;;;;;;25.13;10.70;;;;;;;;;;5089162;28;20534;-63
2022/05/21 09:10:16;;;;;;;19.10;9.98;;;;;;;;;;5084047;28;20031;-63
2022/05/21 09:12:52;;;;;;;20.92;9.80;;;;;;;;;;5093409;28;20031;-63
2022/05/21 09:18:11;;;;;;;28.92;9.57;;;;;;;;;;5077033;28;20063;-63
2022/05/21 09:20:44;;;;;;;24.95;10.68;;;;;;;;;;5079535;28;20082;-64
2022/05/21 09:23:11;;;;;;;23.30;10.43;;;;;;;;;;5100464;28;20394;-63
2022/05/21 09:25:37;;;;;;;17.02;9.68;;;;;;;;;;5085832;28;20024;-63
2022/05/21 09:28:11;;;;;;;25.20;10.13;;;;;;;;;;5100133;28;20039;-63
2022/05/21 09:30:40;;;;;;;21.92;10.35;;;;;;;;;;5094669;28;20478;-63
2022/05/21 09:33:23;;;;;;;20.10;9.73;;;;;;;;;;5088730;28;20412;-63
2022/05/21 09:35:53;;;;;;;23.65;10.38;;;;;;;;;;5087587;28;20503;-63
2022/05/21 09:38:21;;;;;;;17.77;9.77;;;;;;;;;;5092971;28;20044;-63
2022/05/21 09:40:48;;;;;;;19.10;9.93;;;;;;;;;;5096055;28;20468;-63
2022/05/21 09:46:17;;;;;;;18.15;8.32;;;;;;;;;;5094076;28;20244;-63
2022/05/21 09:48:45;;;;;;;21.33;9.43;;;;;;;;;;5097028;28;20027;-63
2022/05/21 09:51:22;;;;;;;22.60;9.32;;;;;;;;;;5089465;28;20021;-63
2022/05/21 09:53:48;;;;;;;18.63;9.02;;;;;;;;;;5087933;28;20745;-63
2022/05/21 09:56:25;;;;;;;18.02;7.90;;;;;;;;;;5084211;28;20039;-62
2022/05/21 09:58:52;;;;;;;19.35;8.10;;;;;;;;;;5096861;28;20418;-63
2022/05/21 10:01:38;;;;;;;18.67;8.27;;;;;;;;;;5083256;28;20052;-63
2022/05/21 10:04:12;;;;;;;19.63;7.88;;;;;;;;;;5087923;28;20020;-63
2022/05/21 10:06:42;;;;;;;17.55;8.35;;;;;;;;;;5090835;28;20052;-63
2022/05/21 10:12:00;;;;;;;17.13;7.82;;;;;;;;;;5086049;28;20506;-63
2022/05/21 10:14:30;;;;;;;18.75;7.75;;;;;;;;;;5088701;28;20024;-63
2022/05/21 10:17:06;;;;;;;23.40;7.35;;;;;;;;;;5093181;28;20039;-63
2022/05/21 10:19:39;;;;;;;17.75;6.70;;;;;;;;;;5077141;28;20099;-63
2022/05/21 10:22:17;;;;;;;13.40;6.45;;;;;;;;;;5093292;28;20099;-63
2022/05/21 10:24:49;;;;;;;18.40;6.95;;;;;;;;;;5092787;28;20032;-63
2022/05/21 10:27:31;;;;;;;14.35;6.45;;;;;;;;;;5090039;28;20085;-63
2022/05/21 10:30:11;;;;;;;15.40;6.85;;;;;;;;;;5085095;28;20064;-63
2022/05/21 10:32:43;;;;;;;19.58;7.72;;;;;;;;;;5083599;28;20550;-63
2022/05/21 10:35:12;;;;;;;15.77;7.32;;;;;;;;;;5089339;28;20024;-63
2022/05/21 10:37:53;;;;;;;17.73;7.30;;;;;;;;;;5088384;28;20701;-63
2022/05/21 10:40:23;;;;;;;17.38;7.43;;;;;;;;;;5096381;28;20020;-62
2022/05/21 10:43:12;;;;;;;15.80;6.03;;;;;;;;;;5092284;28;20028;-63
2022/05/21 10:45:45;;;;;;;18.83;6.50;;;;;;;;;;5077243;28;20024;-63
2022/05/21 10:48:20;;;;;;;14.90;6.60;;;;;;;;;;5088115;28;20024;-63
2022/05/21 10:50:50;;;;;;;11.90;6.20;;;;;;;;;;5085866;28;20414;-63
2022/05/21 10:53:39;;;;;;;14.18;6.10;;;;;;;;;;5079266;28;20095;-63
2022/05/21 10:56:23;;;;;;;13.90;6.20;;;;;;;;;;5086734;28;20043;-63
2022/05/21 10:58:59;;;;;;;17.10;6.53;;;;;;;;;;5091396;28;20124;-62
2022/05/21 11:01:30;;;;;;;14.80;6.68;;;;;;;;;;5079376;28;20056;-63
2022/05/21 11:04:14;;;;;;;15.95;7.03;;;;;;;;;;5089575;28;20034;-63
2022/05/21 11:07:01;;;;;;;16.35;7.00;;;;;;;;;;5088758;28;20027;-63
2022/05/21 11:09:39;;;;;;;14.90;5.88;;;;;;;;;;5084562;28;20383;-63
2022/05/21 11:12:09;;;;;;;18.05;6.80;;;;;;;;;;5082497;28;20027;-63
2022/05/21 11:14:41;;;;;;;16.23;6.70;;;;;;;;;;5093273;28;20061;-63
2022/05/21 11:17:16;;;;;;;12.00;6.47;;;;;;;;;;5087216;28;21028;-63
2022/05/21 11:19:48;;;;;;;13.32;6.63;;;;;;;;;;5090646;28;20482;-63
2022/05/21 11:22:24;;;;;;;18.75;6.45;;;;;;;;;;5094144;28;20561;-63
2022/05/21 11:24:57;;;;;;;12.02;6.20;;;;;;;;;;5088635;28;20036;-63
2022/05/21 11:27:27;;;;;;;15.90;7.32;;;;;;;;;;5098324;28;20126;-63
2022/05/21 11:30:01;;;;;;;14.52;6.45;;;;;;;;;;5094869;28;20028;-63
2022/05/21 11:38:24;;;;;;;15.77;5.97;;;;;;;;;;5085597;28;20477;-63
2022/05/21 11:41:25;;;;;;;16.17;6.90;;;;;;;;;;5092197;28;20027;-63
2022/05/21 11:43:51;;;;;;;17.10;6.05;;;;;;;;;;5083109;28;20020;-63
2022/05/21 11:46:17;;;;;;;19.42;5.65;;;;;;;;;;5085757;28;20565;-63
2022/05/21 11:48:43;;;;;;;12.90;5.57;;;;;;;;;;5082132;28;20028;-63
2022/05/21 11:51:18;;;;;;;16.80;6.00;;;;;;;;;;5077240;28;20036;-63
2022/05/21 11:53:45;;;;;;;12.20;5.50;;;;;;;;;;5094770;28;20027;-63
2022/05/21 11:56:12;;;;;;;13.52;5.93;;;;;;;;;;5088339;28;20011;-63
2022/05/21 11:58:50;;;;;;;12.50;6.15;;;;;;;;;;5089014;28;20433;-63
2022/05/21 12:01:43;;;;;;;12.55;5.38;;;;;;;;;;5087931;28;20070;-63
2022/05/21 12:04:44;;;;;;;15.30;6.38;;;;;;;;;;5084546;28;20040;-63
2022/05/21 12:07:14;;;;;;;12.88;5.63;;;;;;;;;;5086551;28;20111;-63
2022/05/21 12:09:56;;;;;;;12.45;5.88;;;;;;;;;;5087016;28;20146;-63
2022/05/21 12:12:25;;;;;;;13.20;5.28;;;;;;;;;;5091069;28;20059;-63
2022/05/21 12:15:10;;;;;;;18.50;5.93;;;;;;;;;;5095941;28;20028;-63
2022/05/21 12:17:56;;;;;;;14.13;5.13;;;;;;;;;;5086981;28;20039;-63
2022/05/21 12:20:42;;;;;;;13.35;5.30;;;;;;;;;;5083684;28;20040;-63
2022/05/21 12:23:12;;;;;;;12.27;5.60;;;;;;;;;;5095937;28;20035;-63
2022/05/21 12:25:44;;;;;;;15.68;5.90;;;;;;;;;;5083780;28;20024;-63
2022/05/21 12:28:11;;;;;;;11.82;6.20;;;;;;;;;;5092647;28;20446;-63
2022/05/21 12:30:38;;;;;;;13.30;6.65;;;;;;;;;;5091603;28;20027;-63
2022/05/21 12:33:06;;;;;;;15.43;6.07;;;;;;;;;;5096301;28;20036;-62
2022/05/21 12:35:45;;;;;;;9.60;5.80;;;;;;;;;;5081156;28;20479;-63
2022/05/21 12:38:46;;;;;;;14.73;5.65;;;;;;;;;;5086728;28;20027;-63
2022/05/21 12:41:22;;;;;;;14.32;5.50;;;;;;;;;;5085983;28;20074;-63
2022/05/21 12:43:50;;;;;;;12.95;5.00;;;;;;;;;;5082455;28;20479;-63
2022/05/21 12:46:25;;;;;;;15.50;5.53;;;;;;;;;;5076250;28;20546;-62
2022/05/21 12:48:52;;;;;;;14.65;5.30;;;;;;;;;;5081598;28;20034;-63
2022/05/21 12:51:24;;;;;;;9.98;4.97;;;;;;;;;;5081943;28;20060;-63
2022/05/21 12:53:51;;;;;;;9.35;5.05;;;;;;;;;;5089361;28;20475;-63
2022/05/21 12:56:29;;;;;;;15.10;5.40;;;;;;;;;;5086390;28;20028;-63
2022/05/21 12:59:02;;;;;;;13.80;5.50;;;;;;;;;;5087526;28;20483;-63
2022/05/21 13:01:30;;;;;;;12.45;5.55;;;;;;;;;;5084451;28;20522;-63
2022/05/21 13:03:58;;;;;;;12.57;5.20;;;;;;;;;;5091209;28;20032;-63
2022/05/21 13:06:26;;;;;;;8.23;4.55;;;;;;;;;;5096768;28;20032;-63
2022/05/21 13:08:53;;;;;;;17.30;6.07;;;;;;;;;;5088638;28;20483;-63
2022/05/21 13:11:23;;;;;;;15.30;5.65;;;;;;;;;;5091200;28;20034;-63
2022/05/21 13:14:01;;;;;;;13.32;5.60;;;;;;;;;;5093462;28;20063;-63
2022/05/21 13:16:28;;;;;;;14.18;5.68;;;;;;;;;;5078272;28;20531;-63
2022/05/21 13:19:00;;;;;;;12.25;5.72;;;;;;;;;;5096815;27;20028;-63
2022/05/21 13:21:50;;;;;;;12.38;5.68;;;;;;;;;;5088207;28;20024;-63
2022/05/21 13:24:34;;;;;;;11.80;5.40;;;;;;;;;;5097135;28;20044;-63
2022/05/21 13:27:15;;;;;;;13.43;5.03;;;;;;;;;;5085635;28;20024;-63
2022/05/21 13:29:42;;;;;;;21.17;5.50;;;;;;;;;;5082033;28;20035;-63
2022/05/21 13:32:14;;;;;;;12.35;5.20;;;;;;;;;;5091474;28;20059;-63
2022/05/21 13:34:40;;;;;;;14.75;5.57;;;;;;;;;;5094124;28;20633;-63
2022/05/21 13:37:06;;;;;;;13.57;5.68;;;;;;;;;;5082212;28;20064;-63
2022/05/21 13:39:34;;;;;;;12.23;5.72;;;;;;;;;;5080159;28;20094;-63
2022/05/21 13:42:08;;;;;;;11.55;5.15;;;;;;;;;;5080586;28;20027;-63
2022/05/21 13:44:36;;;;;;;10.32;5.30;;;;;;;;;;5079609;28;20032;-63
2022/05/21 13:47:05;;;;;;;12.85;5.38;;;;;;;;;;5088475;28;20479;-63
2022/05/21 13:49:36;;;;;;;14.60;5.40;;;;;;;;;;5080053;28;20037;-62
2022/05/21 13:52:03;;;;;;;12.23;4.70;;;;;;;;;;5084996;28;20031;-63
2022/05/21 13:54:31;;;;;;;11.48;5.00;;;;;;;;;;5099185;28;20766;-63
2022/05/21 13:57:09;;;;;;;10.65;5.03;;;;;;;;;;5083567;28;20056;-63
2022/05/21 13:59:35;;;;;;;12.00;4.93;;;;;;;;;;5093038;28;20088;-63
2022/05/21 14:02:16;;;;;;;10.82;4.78;;;;;;;;;;5089293;28;20020;-63
2022/05/21 14:04:42;;;;;;;13.77;4.93;;;;;;;;;;5099802;28;20080;-63
2022/05/21 14:07:28;;;;;;;9.70;4.40;;;;;;;;;;5078827;28;20028;-63
2022/05/21 14:09:56;;;;;;;11.52;5.25;;;;;;;;;;5079396;28;20067;-63
2022/05/21 14:12:31;;;;;;;14.43;5.22;;;;;;;;;;5081212;28;20082;-63
2022/05/21 14:14:58;;;;;;;12.68;5.03;;;;;;;;;;5100901;28;20103;-63
2022/05/21 14:17:24;;;;;;;9.20;4.80;;;;;;;;;;5087108;28;20063;-63
2022/05/21 14:20:12;;;;;;;13.05;5.10;;;;;;;;;;5094500;28;20077;-63
2022/05/21 14:22:39;;;;;;;10.43;4.57;;;;;;;;;;5089189;28;20047;-63
2022/05/21 14:25:17;;;;;;;11.85;4.30;;;;;;;;;;5085536;28;20425;-63
2022/05/21 14:27:58;;;;;;;10.88;4.93;;;;;;;;;;5089985;28;20479;-63
2022/05/21 14:30:35;;;;;;;14.45;5.15;;;;;;;;;;5090351;28;20119;-63
2022/05/21 14:33:11;;;;;;;9.23;5.20;;;;;;;;;;5093647;28;20072;-62
2022/05/21 14:35:37;;;;;;;9.82;4.68;;;;;;;;;;5086005;28;20051;-62
2022/05/21 14:38:03;;;;;;;12.63;4.88;;;;;;;;;;5088781;28;20378;-63
2022/05/21 14:40:43;;;;;;;14.35;5.30;;;;;;;;;;5088386;28;20031;-62
2022/05/21 14:43:13;;;;;;;12.75;6.30;;;;;;;;;;5078786;28;20054;-63
2022/05/21 14:45:39;;;;;;;12.90;5.47;;;;;;;;;;5087626;28;20359;-63
2022/05/21 14:48:06;;;;;;;13.02;5.07;;;;;;;;;;5090846;28;20031;-62
2022/05/21 14:53:20;;;;;;;14.02;5.78;;;;;;;;;;5078127;28;20449;-61
2022/05/21 14:55:48;;;;;;;13.13;6.07;;;;;;;;;;5088499;28;20024;-63
2022/05/21 14:58:15;;;;;;;13.70;6.40;;;;;;;;;;5077876;28;20016;-63
2022/05/21 15:00:41;;;;;;;13.77;5.95;;;;;;;;;;5097359;28;20031;-62
2022/05/21 15:03:07;;;;;;;12.85;6.10;;;;;;;;;;5091661;28;20034;-62
2022/05/21 15:05:35;;;;;;;11.00;5.85;;;;;;;;;;5085109;28;20047;-63
2022/05/21 15:08:01;;;;;;;11.15;5.93;;;;;;;;;;5084553;28;20384;-64
2022/05/21 15:10:27;;;;;;;10.55;5.68;;;;;;;;;;5099033;28;20042;-62
2022/05/21 15:12:54;;;;;;;12.73;6.55;;;;;;;;;;5085927;28;20030;-63
2022/05/21 15:15:20;;;;;;;13.90;6.03;;;;;;;;;;5081909;28;20035;-63
2022/05/21 15:17:47;;;;;;;13.45;6.10;;;;;;;;;;5090354;28;20039;-62